HOURLY OBS INDEX

050

Central Western Plains - south

CONDOBOLIN AIRPORT AWS

Site: 050137
Alt: 192.6m
6km E of CONDOBOLIN


  Time     Wind        Temp  DP   Baro     Rain since   Rain past  Vis(m), Cloud(base in m), Weather
  local        km/h                         9am  last   hr   10m    
Thu 17:00    W 19/ 28  20.6 18.5   997.2    7.4   1.8   4.4   0.0   ----- 
Thu 17:30    W 28/ 39  21.3 17.9   997.3    7.4   0.0   1.8   0.0   ----- 
Thu 17:40    W 32/ 50  21.0 16.0   997.9    7.4   0.0  ----   0.0   ----- 
Thu 18:00    W 32/ 41  20.7 15.5   998.4    7.4   0.0   0.0   0.0   ----- 
Thu 18:30    W 28/ 33  20.9 15.2   998.7    7.4   0.0   0.0   0.0   ----- 
Thu 19:00  WSW 24/ 30  20.5 14.8   999.0    7.4   0.0   0.0   0.0   ----- 
Thu 19:00  WSW 24/ 30  20.5 14.8   999.0    7.4   0.0  ----   0.0   ----- 
Thu 19:30  WSW 20/ 28  20.3 15.1   999.2    7.4   0.0   0.0   0.0   ----- 
Thu 20:00    W 24/ 35  20.2 14.6  1000.0    7.4   0.0   0.0   0.0   ----- 
Thu 20:30    W 22/ 30  19.5 14.5  1000.6    7.4   0.0   0.0   0.0   ----- 
Thu 21:00  WSW 20/ 30  18.5 14.0  1000.7    7.4   0.0   0.0   0.0   ----- 
Thu 21:00  WSW 20/ 30  18.5 14.0  1000.7    7.4   0.0  ----   0.0   ----- 
Thu 21:00  WSW 20/ 30  18.5 14.0  1000.7    7.4   0.0  ----   0.0   ----- 
Thu 21:30  WSW 15/ 19  18.3 13.8  1001.3    7.4   0.0   0.0   0.0   ----- 
Thu 22:00  WSW 13/ 20  18.0 13.5  1001.7    7.4   0.0   0.0   0.0   ----- 
Thu 22:30  WSW 15/ 19  17.8 12.7  1002.3    7.4   0.0   0.0   0.0   ----- 

WEST WYALONG AIRPORT AWS

Site: 050017
Alt: 257.0m
97km S of CONDOBOLIN


  Time     Wind        Temp  DP   Baro     Rain since   Rain past  Vis(m), Cloud(base in m), Weather
  local        km/h                         9am  last   hr   10m    
Thu 17:00  WNW 17/ 26  20.9 17.7   996.5    6.6   0.0   2.2   0.0   ----- 
Thu 17:30  NNW 17/ 24  22.0 18.4   997.0    6.6   0.0   0.0   0.0   ----- 
Thu 17:43  WNW 28/ 43  21.6 17.4   997.5    6.6   0.0  ----   0.0   ----- 
Thu 18:00    W 32/ 45  20.8 16.8   997.6    6.6   0.0   0.0   0.0   ----- 
Thu 18:30    W 28/ 39  20.7 16.9   997.9    6.6   0.0   0.0   0.0   ----- 
Thu 19:00    W 22/ 32  20.5 16.3   998.5    6.6   0.0   0.0   0.0   ----- 
Thu 19:00    W 22/ 32  20.5 16.3   998.5    6.6   0.0  ----   0.0   ----- 
Thu 19:30    W 24/ 35  20.2 15.4   999.0    6.6   0.0   0.0   0.0   ----- 
Thu 20:00  WSW 20/ 30  19.7 14.9   999.6    6.6   0.0   0.0   0.0   ----- 
Thu 20:30    W 30/ 41  18.3 15.2  1000.3    6.6   0.0   0.0   0.0   ----- 
Thu 21:00    W 26/ 35  17.3 14.0  1000.9    6.6   0.0   0.0   0.0   ----- 
Thu 21:00    W 26/ 35  17.3 14.0  1000.9    6.6   0.0  ----   0.0   ----- 
Thu 21:00    W 26/ 35  17.3 14.0  1000.9    6.6   0.0  ----   0.0   ----- 
Thu 21:30    W 19/ 26  16.8 13.5  1001.2    6.6   0.0   0.0   0.0   ----- 
Thu 22:00   SW 13/ 17  16.4 12.8  1001.3    6.6   0.0   0.0   0.0   ----- 
Thu 22:30    W  9/ 11  16.0 11.4  1001.9    6.6   0.0   0.0   0.0   -----